Time;durP1;ratioP1;P1;durP2;ratioP2;P2;SDS_P1;SDS_P2;PMS_P1;PMS_P2;Temp;Humidity;BMP_temperature;BMP_pressure;BME280_temperature;BME280_humidity;BME280_pressure;Samples;Min_cycle;Max_cycle;Signal;HPM_P1;HPM_P2
2023/08/02 12:10:36;;;;;;;4.72;3.02;;;;;;;32.26;39.39;99288.52;1780912;79;28180;-82
2023/08/02 12:13:42;;;;;;;5.87;3.00;;;;;;;32.34;38.70;99288.81;1761775;81;21307;-83
2023/08/02 12:16:51;;;;;;;5.17;3.12;;;;;;;32.53;38.08;99282.09;1785254;80;21871;-83
2023/08/02 12:20:00;;;;;;;8.35;2.95;;;;;;;32.61;38.84;99276.94;1747867;80;21838;-84
2023/08/02 12:23:09;;;;;;;7.55;2.72;;;;;;;32.60;37.99;99282.33;1763919;80;21335;-84
2023/08/02 12:26:14;;;;;;;4.90;2.60;;;;;;;32.53;38.17;99279.25;1784149;80;21562;-85
2023/08/02 12:29:30;;;;;;;12.82;2.77;;;;;;;32.51;37.43;99275.37;1782919;80;21645;-85
2023/08/02 12:32:35;;;;;;;13.90;3.02;;;;;;;32.51;37.38;99271.13;1750142;82;21886;-85
2023/08/02 12:35:40;;;;;;;8.80;2.85;;;;;;;32.61;37.57;99270.42;1781149;80;21589;-83
2023/08/02 12:38:46;;;;;;;6.25;2.80;;;;;;;32.66;37.46;99267.40;1751269;82;21720;-84
2023/08/02 12:41:55;;;;;;;10.60;3.10;;;;;;;32.79;37.75;99277.00;1784514;80;21274;-84
2023/08/02 12:45:01;;;;;;;8.33;3.02;;;;;;;32.95;37.00;99284.85;1722480;83;21307;-84
2023/08/02 12:48:09;;;;;;;5.08;2.95;;;;;;;32.95;37.21;99277.18;1716428;82;21265;-84
2023/08/02 12:51:15;;;;;;;12.15;3.42;;;;;;;33.06;37.44;99279.78;1722453;83;21310;-84
2023/08/02 12:54:21;;;;;;;5.78;3.10;;;;;;;32.83;37.34;99273.68;1744317;82;21887;-84
2023/08/02 12:57:27;;;;;;;5.60;2.87;;;;;;;32.92;37.68;99266.54;1746246;82;21311;-84
2023/08/02 13:00:32;;;;;;;7.58;3.05;;;;;;;32.96;37.45;99266.67;1735148;81;21553;-84
2023/08/02 13:03:38;;;;;;;6.95;2.60;;;;;;;33.14;36.79;99271.55;1738941;80;22190;-84
2023/08/02 13:06:45;;;;;;;11.40;2.90;;;;;;;33.11;36.15;99271.65;1745966;82;21310;-84
2023/08/02 13:09:52;;;;;;;6.30;2.77;;;;;;;33.31;36.08;99267.91;1774891;79;21393;-84
2023/08/02 13:13:04;;;;;;;4.12;2.52;;;;;;;34.42;34.99;99264.34;1767174;79;21303;-85
2023/08/02 13:16:10;;;;;;;13.22;2.67;;;;;;;35.40;33.23;99270.11;1739557;82;21303;-85
2023/08/02 13:19:17;;;;;;;4.30;2.60;;;;;;;35.76;32.45;99262.71;1731702;82;21872;-84
2023/08/02 13:22:24;;;;;;;13.15;3.40;;;;;;;35.45;32.56;99266.98;1728125;82;21844;-84
2023/08/02 13:25:33;;;;;;;10.10;2.85;;;;;;;35.15;33.28;99259.50;1713751;83;21864;-84
2023/08/02 13:28:39;;;;;;;7.22;2.67;;;;;;;35.43;32.84;99266.51;1709527;83;21343;-84
2023/08/02 13:31:45;;;;;;;4.87;2.70;;;;;;;35.22;32.29;99257.68;1717579;83;21269;-83
2023/08/02 13:34:52;;;;;;;4.45;2.70;;;;;;;35.20;32.63;99254.98;1733822;82;21916;-84
2023/08/02 13:37:59;;;;;;;13.28;2.50;;;;;;;35.06;32.88;99254.84;1740082;81;21263;-84
2023/08/02 13:41:06;;;;;;;10.10;3.12;;;;;;;35.12;32.64;99253.97;1729444;83;21308;-84
2023/08/02 13:44:06;;;;;;;4.85;2.77;;;;;;;34.90;33.52;99261.05;1729915;83;21336;-84
2023/08/02 13:47:12;;;;;;;4.67;2.62;;;;;;;35.06;33.40;99258.28;1732910;82;21862;-84
2023/08/02 13:50:18;;;;;;;5.22;3.50;;;;;;;34.94;33.65;99261.98;1716236;82;21296;-84
2023/08/02 13:53:24;;;;;;;9.83;3.52;;;;;;;34.86;33.72;99261.55;1729706;83;21300;-84
2023/08/02 13:56:30;;;;;;;5.50;3.20;;;;;;;33.86;35.75;99258.56;1709406;84;21307;-84
2023/08/02 13:59:38;;;;;;;5.15;3.05;;;;;;;34.55;34.86;99259.48;1705185;84;21324;-84
2023/08/02 14:02:45;;;;;;;5.03;2.95;;;;;;;34.56;34.93;99264.79;1705116;84;21280;-84
2023/08/02 14:05:51;;;;;;;10.68;3.55;;;;;;;33.56;36.29;99265.94;1705978;84;21332;-84
2023/08/02 14:08:57;;;;;;;9.78;3.00;;;;;;;34.25;36.20;99266.91;1704979;84;21367;-85
2023/08/02 14:12:03;;;;;;;9.35;3.55;;;;;;;33.57;37.07;99266.75;1705072;84;21888;-84
2023/08/02 14:15:09;;;;;;;9.08;3.17;;;;;;;32.95;37.75;99259.36;1715062;83;21302;-84
2023/08/02 14:18:14;;;;;;;6.03;3.05;;;;;;;33.96;36.64;99260.94;1715291;83;21269;-84
2023/08/02 14:21:21;;;;;;;11.95;3.40;;;;;;;34.04;35.88;99265.66;1669276;83;21331;-84
2023/08/02 14:24:26;;;;;;;10.68;3.12;;;;;;;34.26;35.73;99263.48;1699723;83;21363;-85
2023/08/02 14:27:32;;;;;;;5.53;2.87;;;;;;;34.47;35.21;99261.28;1715664;83;21299;-85
2023/08/02 14:30:37;;;;;;;8.30;3.25;;;;;;;33.66;36.44;99251.87;1714445;83;21355;-84
2023/08/02 14:33:44;;;;;;;6.30;3.12;;;;;;;34.50;35.38;99242.72;1699935;83;21287;-85
2023/08/02 14:36:50;;;;;;;7.90;3.20;;;;;;;34.51;35.09;99242.94;1715596;83;21272;-85
2023/08/02 14:39:56;;;;;;;6.92;3.33;;;;;;;34.46;34.57;99240.36;1714824;83;21364;-85
2023/08/02 14:43:03;;;;;;;6.50;2.77;;;;;;;34.30;35.45;99231.18;1715540;83;21283;-85
2023/08/02 14:46:03;;;;;;;5.05;3.05;;;;;;;33.51;36.64;99239.84;1714291;83;21350;-85
2023/08/02 14:49:09;;;;;;;6.60;3.45;;;;;;;34.29;35.75;99225.25;1715347;83;21327;-85
2023/08/02 14:52:15;;;;;;;7.37;3.58;;;;;;;34.22;35.46;99229.31;1699096;83;21324;-85
2023/08/02 14:55:21;;;;;;;7.03;3.30;;;;;;;34.01;35.82;99222.39;1714666;83;21789;-84
2023/08/02 14:58:28;;;;;;;6.50;3.27;;;;;;;33.94;34.94;99228.42;1715427;83;21789;-85
2023/08/02 15:01:35;;;;;;;11.38;3.25;;;;;;;33.96;34.86;99224.66;1714940;83;21920;-84
2023/08/02 15:04:41;;;;;;;11.20;3.00;;;;;;;33.94;35.28;99224.17;1715010;83;21354;-85
2023/08/02 15:07:47;;;;;;;8.65;3.50;;;;;;;33.66;35.93;99227.77;1715794;83;21744;-85
2023/08/02 15:10:54;;;;;;;13.75;3.47;;;;;;;33.55;35.90;99221.77;1715440;83;21299;-85
2023/08/02 15:14:02;;;;;;;8.45;3.08;;;;;;;33.55;36.00;99219.53;1718086;83;21291;-85
2023/08/02 15:17:08;;;;;;;6.05;3.00;;;;;;;33.58;35.84;99216.78;1725955;83;21279;-84
2023/08/02 15:20:14;;;;;;;10.10;3.40;;;;;;;33.50;36.05;99222.57;1709486;83;21315;-84
2023/08/02 15:23:21;;;;;;;6.33;3.65;;;;;;;33.66;35.58;99219.27;1725977;83;21279;-85
2023/08/02 15:26:27;;;;;;;7.00;3.25;;;;;;;33.75;35.25;99212.87;1725894;83;21377;-85
2023/08/02 15:29:33;;;;;;;5.78;3.33;;;;;;;33.90;35.08;99214.73;1709004;83;21319;-85
2023/08/02 15:32:39;;;;;;;5.15;3.55;;;;;;;33.80;34.95;99210.38;1724476;83;21311;-85
2023/08/02 15:35:50;;;;;;;7.15;3.45;;;;;;;33.80;35.12;99210.38;1724567;81;21895;-85
2023/08/02 15:38:58;;;;;;;6.97;3.45;;;;;;;34.06;35.40;99204.30;1725712;83;21330;-84
2023/08/02 15:42:04;;;;;;;8.20;3.75;;;;;;;33.90;36.03;99210.47;1725081;83;21867;-85
2023/08/02 15:45:10;;;;;;;7.65;3.80;;;;;;;33.80;36.01;99215.45;1724879;83;21327;-85
2023/08/02 15:48:16;;;;;;;5.97;3.52;;;;;;;33.70;35.89;99215.95;1725824;83;21305;-85
2023/08/02 15:51:23;;;;;;;6.72;3.62;;;;;;;33.60;36.27;99213.61;1725625;83;21314;-84
2023/08/02 15:54:29;;;;;;;7.70;3.85;;;;;;;33.53;36.46;99214.19;1725305;83;21311;-85
2023/08/02 15:57:35;;;;;;;11.93;3.42;;;;;;;33.55;36.49;99206.77;1725120;83;21359;-84
2023/08/02 16:00:41;;;;;;;8.85;3.83;;;;;;;33.22;37.14;99207.70;1724579;83;21310;-85
2023/08/02 16:03:49;;;;;;;6.87;3.80;;;;;;;32.87;38.22;99203.02;1725798;83;21319;-85
2023/08/02 16:06:55;;;;;;;11.12;3.83;;;;;;;32.87;38.22;99203.02;1725969;83;21276;-85
2023/08/02 16:13:15;;;;;;;8.20;3.98;;;;;;;32.82;38.68;99208.33;1724607;83;21322;-85
2023/08/02 16:16:22;;;;;;;7.67;4.30;;;;;;;32.74;39.35;99207.01;1711093;83;21872;-85
2023/08/02 16:19:32;;;;;;;7.25;3.77;;;;;;;32.67;40.08;99203.34;1665637;86;21933;-84
2023/08/02 16:22:39;;;;;;;5.55;3.95;;;;;;;32.87;40.12;99210.70;1664767;86;21348;-85
2023/08/02 16:25:51;;;;;;;14.15;4.15;;;;;;;32.81;40.29;99209.52;1664822;86;21324;-84
2023/08/02 16:28:56;;;;;;;10.53;4.05;;;;;;;32.90;40.74;99208.59;1665815;86;21217;-85
2023/08/02 16:32:05;;;;;;;13.48;4.12;;;;;;;32.51;41.77;99202.34;1665049;86;21331;-84
2023/08/02 16:35:12;;;;;;;10.30;3.85;;;;;;;32.54;41.92;99198.83;1665323;86;21411;-84
2023/08/02 16:38:20;;;;;;;14.03;4.20;;;;;;;32.54;41.92;99198.83;1664953;86;21908;-85
2023/08/02 16:41:27;;;;;;;5.87;4.05;;;;;;;32.28;43.04;99202.73;1664897;86;21849;-83
2023/08/02 16:44:33;;;;;;;16.48;4.33;;;;;;;32.06;43.71;99200.27;1665669;86;21857;-85
2023/08/02 16:47:41;;;;;;;10.23;4.20;;;;;;;31.98;43.97;99201.16;1666271;86;21739;-85
2023/08/02 16:50:50;;;;;;;22.30;4.42;;;;;;;31.61;45.32;99205.16;1665088;86;21323;-84
2023/08/02 16:53:52;;;;;;;13.98;4.80;;;;;;;31.60;45.40;99202.67;1665217;86;21336;-85
2023/08/02 16:56:58;;;;;;;10.15;4.72;;;;;;;31.35;45.40;99206.75;1666293;86;21941;-85
2023/08/02 17:00:04;;;;;;;12.20;5.30;;;;;;;31.25;45.49;99209.94;1665504;86;21868;-85
2023/08/02 17:03:12;;;;;;;14.25;4.72;;;;;;;30.99;46.31;99206.63;1665656;86;21331;-85
2023/08/02 17:06:22;;;;;;;12.37;5.67;;;;;;;31.18;47.38;99214.69;1680108;85;21842;-85
2023/08/02 17:09:29;;;;;;;12.50;5.42;;;;;;;31.13;47.93;99213.47;1692234;85;21359;-85
2023/08/02 17:12:37;;;;;;;19.07;5.62;;;;;;;30.99;48.66;99226.98;1692101;85;21936;-85
2023/08/02 17:15:43;;;;;;;25.30;5.58;;;;;;;30.82;49.34;99231.27;1695531;81;21324;-85
2023/08/02 17:18:51;;;;;;;8.78;5.40;;;;;;;30.40;50.69;99240.91;1734377;82;21303;-85
2023/08/02 17:22:00;;;;;;;18.45;5.60;;;;;;;30.13;51.72;99240.08;1732982;83;21323;-84
2023/08/02 17:25:07;;;;;;;9.53;5.03;;;;;;;30.37;51.30;99242.97;1732774;81;21334;-84
2023/08/02 17:28:16;;;;;;;14.68;5.47;;;;;;;30.02;52.34;99248.60;1734697;83;21287;-84
2023/08/02 17:31:23;;;;;;;16.50;6.28;;;;;;;30.19;52.45;99254.25;1731603;83;21333;-85
2023/08/02 17:34:30;;;;;;;16.02;6.03;;;;;;;30.01;53.19;99270.88;1733881;83;21303;-84
2023/08/02 17:37:40;;;;;;;30.23;8.58;;;;;;;29.95;53.33;99270.80;1734508;83;21308;-84
2023/08/02 17:40:48;;;;;;;27.48;7.58;;;;;;;30.21;52.86;99273.68;1732052;83;21351;-85
2023/08/02 17:43:56;;;;;;;28.23;7.85;;;;;;;29.86;53.84;99283.47;1732875;83;21307;-85
2023/08/02 17:46:56;;;;;;;21.87;7.37;;;;;;;29.78;54.42;99299.22;1734090;83;21280;-84
2023/08/02 17:50:04;;;;;;;25.75;7.05;;;;;;;29.79;54.84;99302.29;1733408;83;21295;-84
2023/08/02 17:53:11;;;;;;;22.75;6.65;;;;;;;29.89;54.93;99306.78;1734378;82;21283;-85
2023/08/02 17:56:14;;;;;;;22.73;7.33;;;;;;;29.74;55.70;99308.08;1733655;83;21264;-84
2023/08/02 17:59:25;;;;;;;29.25;6.97;;;;;;;29.64;56.40;99311.76;1734755;83;21172;-84
2023/08/02 18:02:31;;;;;;;25.43;6.57;;;;;;;29.67;56.60;99313.35;1735296;83;21276;-85
2023/08/02 18:05:41;;;;;;;56.55;8.35;;;;;;;29.56;57.41;99321.03;1735237;83;21323;-85
2023/08/02 18:08:49;;;;;;;43.17;7.30;;;;;;;29.47;58.04;99318.98;1734910;81;21235;-85
2023/08/02 18:11:56;;;;;;;29.90;6.75;;;;;;;29.36;58.27;99323.25;1734955;83;21872;-85
2023/08/02 18:15:02;;;;;;;27.15;7.05;;;;;;;29.38;58.26;99324.33;1733746;83;21268;-85
2023/08/02 18:18:11;;;;;;;28.27;6.35;;;;;;;29.26;58.70;99320.12;1740502;80;21350;-85
2023/08/02 18:21:17;;;;;;;26.12;6.67;;;;;;;29.19;59.77;99325.98;1745220;82;21255;-84
2023/08/02 18:24:38;;;;;;;22.17;8.70;;;;;;;28.92;61.07;99324.13;1744576;82;21282;-85
2023/08/02 18:27:48;;;;;;;18.85;9.23;;;;;;;28.88;61.25;99319.72;1745389;82;21294;-85
2023/08/02 18:31:06;;;;;;;16.57;8.55;;;;;;;28.97;60.82;99319.80;1745425;82;21776;-85
2023/08/02 18:34:15;;;;;;;19.20;8.58;;;;;;;29.01;60.46;99319.42;1744973;82;21295;-85
2023/08/02 18:37:21;;;;;;;16.77;8.38;;;;;;;29.17;59.13;99318.41;1745404;82;21267;-85
2023/08/02 18:40:28;;;;;;;15.13;7.65;;;;;;;29.12;59.02;99324.19;1744136;82;21775;-85
2023/08/02 18:43:35;;;;;;;19.82;7.90;;;;;;;29.33;58.21;99327.29;1745182;82;21847;-84
2023/08/02 18:46:45;;;;;;;20.02;9.13;;;;;;;29.38;57.67;99322.92;1745463;82;21315;-85
2023/08/02 18:49:53;;;;;;;25.10;7.22;;;;;;;29.81;56.37;99322.27;1745290;82;21886;-85
2023/08/02 18:53:00;;;;;;;17.90;7.20;;;;;;;29.68;56.38;99316.41;1745425;82;21283;-85
2023/08/02 18:56:14;;;;;;;23.12;7.35;;;;;;;29.50;56.36;99316.07;1759466;80;21847;-84
2023/08/02 18:59:37;;;;;;;10.23;6.65;;;;;;;29.41;56.61;99312.42;1744529;80;21187;-84
2023/08/02 19:02:45;;;;;;;12.53;6.60;;;;;;;29.42;56.41;99309.27;1720283;82;21854;-85
2023/08/02 19:05:54;;;;;;;17.65;7.12;;;;;;;29.41;56.34;99311.02;1745425;82;21899;-84
2023/08/02 19:09:01;;;;;;;18.77;7.03;;;;;;;29.23;56.83;99311.52;1745122;82;21211;-85
2023/08/02 19:12:11;;;;;;;14.50;6.53;;;;;;;29.33;56.67;99308.98;1718609;82;21899;-84
2023/08/02 19:15:26;;;;;;;11.00;6.72;;;;;;;29.37;56.14;99298.16;1743838;82;21255;-85
2023/08/02 19:18:33;;;;;;;23.12;6.47;;;;;;;29.15;56.28;99294.81;1762143;80;21342;-85
2023/08/02 19:21:40;;;;;;;19.17;6.60;;;;;;;28.94;55.90;99293.70;1745182;82;21307;-84
2023/08/02 19:24:50;;;;;;;15.28;7.05;;;;;;;28.89;55.52;99289.04;1743962;82;21290;-84
2023/08/02 19:27:55;;;;;;;19.77;6.60;;;;;;;28.91;56.10;99288.70;1745181;82;21898;-84
2023/08/02 19:30:56;;;;;;;12.43;6.83;;;;;;;28.73;57.27;99287.77;1744958;82;21282;-84
2023/08/02 19:33:52;;;;;;;17.80;7.40;;;;;;;28.94;57.10;99281.04;1744925;82;21882;-84
2023/08/02 19:36:39;;;;;;;16.42;6.92;;;;;;;28.73;57.78;99275.11;1745196;82;21307;-84
2023/08/02 19:39:34;;;;;;;11.35;7.12;;;;;;;28.63;58.12;99281.00;1743787;82;21338;-83
2023/08/02 19:42:24;;;;;;;15.35;7.60;;;;;;;28.78;58.03;99288.45;1745269;82;21310;-84
2023/08/02 19:45:34;;;;;;;13.03;7.50;;;;;;;28.87;57.67;99287.11;1743941;82;21290;-84
2023/08/02 19:48:43;;;;;;;17.42;7.33;;;;;;;28.64;58.34;99283.48;1745166;82;21884;-85
2023/08/02 19:51:49;;;;;;;12.65;7.33;;;;;;;28.44;59.25;99279.80;1745246;82;21875;-84
2023/08/02 19:54:57;;;;;;;19.23;7.97;;;;;;;28.46;59.42;99280.30;1744407;82;21302;-85
2023/08/02 19:58:03;;;;;;;21.20;7.10;;;;;;;28.36;59.82;99283.36;1745268;82;21291;-85
2023/08/02 20:01:10;;;;;;;17.25;6.90;;;;;;;28.30;60.13;99295.28;1744112;82;21303;-84
2023/08/02 20:04:18;;;;;;;14.68;7.20;;;;;;;28.12;60.76;99299.09;1744156;82;21298;-84
2023/08/02 20:07:25;;;;;;;16.17;7.70;;;;;;;27.94;61.33;99295.28;1743838;82;21279;-86
2023/08/02 20:10:59;;;;;;;13.83;7.33;;;;;;;27.97;61.53;99297.48;1743592;82;21339;-85
2023/08/02 20:14:03;;;;;;;15.05;8.15;;;;;;;27.81;61.78;99301.76;1744915;82;21891;-84
2023/08/02 20:17:10;;;;;;;19.65;8.43;;;;;;;27.77;61.55;99297.37;1744622;82;21334;-84
2023/08/02 20:20:20;;;;;;;18.25;8.95;;;;;;;27.71;61.88;99305.59;1743978;80;21282;-85
2023/08/02 20:23:24;;;;;;;16.75;10.18;;;;;;;27.66;62.01;99307.94;1745388;82;21275;-85
2023/08/02 20:26:21;;;;;;;16.57;10.25;;;;;;;27.78;61.33;99313.64;1744350;82;21335;-85
2023/08/02 20:29:30;;;;;;;16.85;9.98;;;;;;;27.57;61.88;99308.45;1744928;82;21203;-85
2023/08/02 20:32:36;;;;;;;14.28;8.95;;;;;;;27.42;62.50;99308.73;1745288;82;21188;-84
2023/08/02 20:35:48;;;;;;;24.12;9.85;;;;;;;27.30;62.84;99312.65;1743836;82;21311;-85
2023/08/02 20:38:56;;;;;;;15.95;9.65;;;;;;;27.22;62.95;99310.81;1743842;82;21306;-84
2023/08/02 20:42:05;;;;;;;16.02;9.53;;;;;;;27.32;62.71;99311.18;1745385;82;21303;-85
2023/08/02 20:45:06;;;;;;;24.35;9.28;;;;;;;27.19;62.99;99307.21;1744444;82;21374;-84
2023/08/02 20:48:13;;;;;;;12.78;8.43;;;;;;;27.19;62.90;99318.44;1744413;82;21902;-84
2023/08/02 20:51:24;;;;;;;14.30;8.13;;;;;;;27.17;62.48;99321.31;1745337;82;21327;-85
2023/08/02 20:54:31;;;;;;;13.73;8.20;;;;;;;27.15;61.84;99321.63;1744295;82;21326;-84
2023/08/02 20:57:37;;;;;;;15.00;7.75;;;;;;;27.04;61.87;99320.69;1743968;82;21292;-85
2023/08/02 21:00:46;;;;;;;17.55;7.67;;;;;;;27.12;61.58;99329.25;1743920;82;21369;-83
2023/08/02 21:03:53;;;;;;;10.05;7.83;;;;;;;26.92;62.03;99327.64;1744215;82;21279;-84
2023/08/02 21:07:00;;;;;;;10.98;7.55;;;;;;;26.87;61.96;99319.89;1744495;82;21311;-83
2023/08/02 21:13:24;;;;;;;7.85;6.95;;;;;;;27.05;61.30;99320.36;1723972;82;21826;-83
2023/08/02 21:16:29;;;;;;;9.65;7.25;;;;;;;26.97;60.95;99318.30;1744911;82;21838;-84
2023/08/02 21:19:29;;;;;;;10.60;6.85;;;;;;;26.88;60.52;99323.78;1744854;82;21816;-84
2023/08/02 21:22:36;;;;;;;16.52;6.97;;;;;;;26.81;60.37;99323.33;1734368;80;21851;-83
2023/08/02 21:25:53;;;;;;;7.55;5.62;;;;;;;26.97;59.75;99333.15;1733691;83;21358;-83
2023/08/02 21:28:59;;;;;;;13.08;6.25;;;;;;;26.98;59.52;99336.78;1734751;82;21303;-85
2023/08/02 21:32:05;;;;;;;10.90;6.00;;;;;;;27.05;59.13;99344.22;1734972;82;21279;-85
2023/08/02 21:35:13;;;;;;;11.80;6.65;;;;;;;26.97;59.15;99342.97;1734119;83;21294;-84
2023/08/02 21:38:25;;;;;;;10.40;6.33;;;;;;;27.09;58.80;99349.52;1735178;83;21292;-84
2023/08/02 21:41:31;;;;;;;8.78;5.97;;;;;;;26.97;59.00;99343.55;1733727;83;21837;-84
2023/08/02 21:44:37;;;;;;;8.90;6.47;;;;;;;26.90;59.11;99346.73;1734583;83;21303;-85
2023/08/02 21:47:51;;;;;;;16.17;7.47;;;;;;;26.94;59.00;99339.94;1734083;83;21314;-85
2023/08/02 21:50:58;;;;;;;17.35;6.60;;;;;;;26.98;58.98;99351.64;1735065;82;21797;-84
2023/08/02 21:54:04;;;;;;;16.55;6.75;;;;;;;26.85;59.41;99344.59;1733597;83;21289;-85
2023/08/02 21:57:10;;;;;;;10.35;5.90;;;;;;;26.86;59.32;99345.67;1733737;83;21315;-84
2023/08/02 22:00:16;;;;;;;11.48;6.47;;;;;;;26.74;59.63;99362.17;1733912;83;21346;-83
2023/08/02 22:03:20;;;;;;;12.33;6.50;;;;;;;26.55;60.29;99362.20;1735122;83;21299;-85
2023/08/02 22:06:32;;;;;;;13.45;6.53;;;;;;;26.65;60.12;99364.01;1734979;83;21873;-83
2023/08/02 22:09:38;;;;;;;11.35;6.78;;;;;;;26.63;60.30;99358.72;1734905;83;21303;-84
2023/08/02 22:12:45;;;;;;;9.65;6.72;;;;;;;26.25;61.36;99360.11;1734834;83;21264;-83
2023/08/02 22:15:52;;;;;;;10.78;6.67;;;;;;;26.33;61.27;99354.38;1713010;83;21325;-85
2023/08/02 22:18:57;;;;;;;9.75;6.72;;;;;;;26.16;61.74;99363.33;1734789;83;21291;-86
2023/08/02 22:22:06;;;;;;;13.62;6.22;;;;;;;26.09;62.13;99362.85;1735042;80;21314;-85
2023/08/02 22:25:13;;;;;;;12.23;6.70;;;;;;;26.04;62.37;99368.53;1734047;83;21859;-85
2023/08/02 22:28:18;;;;;;;12.40;6.47;;;;;;;25.96;62.69;99368.63;1734134;83;21314;-86
2023/08/02 22:31:23;;;;;;;9.53;7.12;;;;;;;25.83;63.14;99375.52;1734973;83;21271;-85
2023/08/02 22:34:30;;;;;;;10.75;6.00;;;;;;;25.78;63.18;99389.59;1734837;83;21293;-86
2023/08/02 22:37:36;;;;;;;7.83;6.17;;;;;;;25.98;62.86;99386.55;1733626;83;21279;-85
2023/08/02 22:40:45;;;;;;;9.60;6.45;;;;;;;26.09;62.79;99376.86;1733966;83;21292;-84
2023/08/02 22:43:51;;;;;;;13.18;6.85;;;;;;;25.87;63.44;99379.39;1733511;83;21288;-83
2023/08/02 22:46:56;;;;;;;10.88;6.28;;;;;;;26.07;62.91;99377.75;1717606;83;21292;-84
2023/08/02 22:50:02;;;;;;;10.05;7.05;;;;;;;25.98;63.35;99379.55;1734710;83;21271;-85
2023/08/02 22:53:03;;;;;;;12.80;7.00;;;;;;;26.15;63.12;99369.21;1735055;83;21355;-85
2023/08/02 22:56:11;;;;;;;9.55;6.85;;;;;;;26.16;62.81;99363.87;1735104;83;21295;-83
2023/08/02 22:59:22;;;;;;;8.60;6.55;;;;;;;25.90;63.42;99370.41;1733669;83;21308;-86
2023/08/02 23:02:29;;;;;;;11.08;6.67;;;;;;;25.69;64.18;99369.81;1734699;83;21307;-85
2023/08/02 23:05:41;;;;;;;8.13;7.17;;;;;;;25.98;63.02;99359.37;1734202;83;21275;-85
2023/08/02 23:08:46;;;;;;;9.48;7.10;;;;;;;25.47;64.29;99363.34;1733789;83;21868;-85
2023/08/02 23:11:52;;;;;;;9.43;7.05;;;;;;;26.41;61.61;99356.50;1712170;83;21283;-84
2023/08/02 23:15:04;;;;;;;16.73;7.53;;;;;;;25.57;64.08;99360.98;1755418;80;21298;-84
2023/08/02 23:18:16;;;;;;;13.15;6.80;;;;;;;25.33;65.15;99360.41;1734472;83;21887;-85
2023/08/02 23:21:22;;;;;;;14.43;6.87;;;;;;;24.88;66.98;99349.08;1734688;83;21302;-85
2023/08/02 23:24:27;;;;;;;9.63;6.78;;;;;;;24.76;67.95;99350.05;1734395;80;21287;-84
2023/08/02 23:27:34;;;;;;;18.42;7.37;;;;;;;25.02;67.30;99355.66;1734938;83;21933;-85
2023/08/02 23:30:41;;;;;;;8.15;6.67;;;;;;;25.20;67.10;99359.71;1733840;83;21310;-86
2023/08/02 23:33:47;;;;;;;8.90;7.60;;;;;;;24.76;68.45;99352.84;1734926;83;21306;-84
2023/08/02 23:36:53;;;;;;;12.78;7.65;;;;;;;24.77;68.58;99347.52;1734979;83;21342;-84
2023/08/02 23:40:00;;;;;;;16.62;7.75;;;;;;;24.79;68.70;99335.46;1734081;83;21299;-83
2023/08/02 23:43:06;;;;;;;10.40;7.80;;;;;;;24.70;69.25;99338.91;1734882;83;21298;-83
2023/08/02 23:49:47;;;;;;;9.05;7.30;;;;;;;24.77;69.09;99343.32;1733703;83;21283;-84
2023/08/02 23:52:47;;;;;;;11.28;7.53;;;;;;;24.51;69.57;99343.52;1734817;83;21903;-85
2023/08/02 23:55:52;;;;;;;11.97;8.05;;;;;;;24.62;69.56;99346.52;1734784;83;21268;-83
2023/08/02 23:58:59;;;;;;;11.22;7.60;;;;;;;24.60;69.60;99343.73;1734410;83;22214;-85
